createdAt,value
2018-10-01T00:01:19.326Z,5.93
2018-10-01T00:03:51.011Z,7.33
2018-10-01T00:06:22.821Z,5.73
2018-10-01T00:08:54.709Z,7.57
2018-10-01T00:11:26.530Z,8.97
2018-10-01T00:13:58.282Z,6.93
2018-10-01T00:16:30.085Z,5.30
2018-10-01T00:19:01.892Z,5.03
2018-10-01T00:21:38.929Z,5.47
2018-10-01T00:24:10.769Z,5.33
2018-10-01T00:26:42.632Z,5.80
2018-10-01T00:29:14.425Z,7.03
2018-10-01T00:31:46.261Z,5.10
2018-10-01T00:34:18.103Z,6.43
2018-10-01T00:36:49.773Z,7.47
2018-10-01T00:39:21.713Z,7.00
2018-10-01T00:41:53.585Z,6.57
2018-10-01T00:44:25.420Z,4.47
2018-10-01T00:46:57.298Z,6.83
2018-10-01T00:49:29.217Z,6.77
2018-10-01T00:52:01.129Z,5.60
2018-10-01T00:54:32.946Z,4.60
2018-10-01T00:57:04.861Z,7.07
2018-10-01T00:59:36.880Z,5.77
2018-10-01T01:02:08.785Z,4.97
2018-10-01T01:04:40.590Z,7.67
2018-10-01T01:07:12.409Z,5.50
2018-10-01T01:09:44.401Z,4.47
2018-10-01T01:12:16.220Z,5.87
2018-10-01T01:14:48.015Z,5.50
2018-10-01T01:17:19.758Z,6.90
2018-10-01T01:19:51.463Z,6.50
2018-10-01T01:22:23.159Z,5.87
2018-10-01T01:24:54.982Z,4.73
2018-10-01T01:27:26.789Z,6.97
2018-10-01T01:29:58.500Z,7.47
2018-10-01T01:32:30.394Z,8.23
2018-10-01T01:35:02.129Z,6.03
2018-10-01T01:37:33.846Z,8.53
2018-10-01T01:40:06.395Z,8.70
2018-10-01T01:42:38.168Z,7.50
2018-10-01T01:45:10.057Z,4.97
2018-10-01T01:47:41.816Z,7.77
2018-10-01T01:50:13.599Z,4.73
2018-10-01T01:52:45.489Z,5.83
2018-10-01T01:55:17.237Z,6.03
2018-10-01T01:57:48.925Z,6.33
2018-10-01T02:00:20.718Z,9.20
2018-10-01T02:02:52.627Z,6.80
2018-10-01T02:05:24.422Z,6.17
2018-10-01T02:07:56.157Z,5.53
2018-10-01T02:10:28.073Z,9.97
2018-10-01T02:12:59.897Z,7.23
2018-10-01T02:15:31.593Z,6.17
2018-10-01T02:18:03.405Z,5.67
2018-10-01T02:20:35.018Z,7.80
2018-10-01T02:23:07.019Z,5.73
2018-10-01T02:25:38.744Z,5.83
2018-10-01T02:28:10.662Z,5.63
2018-10-01T02:30:42.589Z,8.13
2018-10-01T02:33:14.469Z,5.37
2018-10-01T02:35:46.262Z,5.47
2018-10-01T02:38:17.973Z,8.63
2018-10-01T02:40:49.697Z,6.40
2018-10-01T02:43:21.524Z,6.27
2018-10-01T02:45:53.370Z,5.93
2018-10-01T02:48:25.114Z,7.03
2018-10-01T02:50:57.026Z,6.60
2018-10-01T02:53:33.629Z,6.07
2018-10-01T02:56:05.542Z,5.33
2018-10-01T02:58:37.311Z,4.87
2018-10-01T03:01:09.561Z,5.67
2018-10-01T03:03:41.387Z,5.80
2018-10-01T03:06:13.381Z,8.17
2018-10-01T03:08:45.152Z,6.60
2018-10-01T03:11:16.898Z,5.30
2018-10-01T03:13:48.586Z,5.17
2018-10-01T03:16:20.301Z,7.20
2018-10-01T03:18:51.922Z,6.63
2018-10-01T03:21:23.778Z,6.40
2018-10-01T03:23:55.517Z,5.60
2018-10-01T03:26:27.346Z,5.53
2018-10-01T03:28:59.174Z,4.90
2018-10-01T03:31:30.986Z,4.20
2018-10-01T03:34:02.668Z,9.23
2018-10-01T03:36:34.462Z,8.00
2018-10-01T03:39:08.733Z,6.47
2018-10-01T03:41:40.987Z,6.57
2018-10-01T03:44:12.757Z,6.67
2018-10-01T03:46:44.569Z,4.50
2018-10-01T03:49:16.369Z,6.23
2018-10-01T03:51:48.410Z,6.60
2018-10-01T03:54:20.140Z,7.30
2018-10-01T03:56:52.026Z,8.57
2018-10-01T03:59:23.837Z,5.77
2018-10-01T04:01:55.651Z,5.37
2018-10-01T04:04:27.378Z,5.63
2018-10-01T04:06:59.202Z,5.50
2018-10-01T04:09:30.879Z,6.40
2018-10-01T04:12:02.685Z,6.50
2018-10-01T04:14:34.470Z,6.07
2018-10-01T04:17:06.211Z,4.90
2018-10-01T04:19:37.822Z,5.47
2018-10-01T04:22:09.644Z,7.10
2018-10-01T04:24:41.434Z,9.07
2018-10-01T04:27:13.443Z,5.00
2018-10-01T04:29:45.045Z,4.80
2018-10-01T04:32:16.870Z,6.47
2018-10-01T04:34:49.741Z,5.50
2018-10-01T04:37:21.497Z,5.47
2018-10-01T04:39:53.205Z,4.43
2018-10-01T04:42:25.050Z,7.50
2018-10-01T04:44:56.736Z,6.17
2018-10-01T04:47:28.625Z,6.03
2018-10-01T04:50:00.369Z,5.43
2018-10-01T04:52:32.162Z,5.70
2018-10-01T04:55:04.279Z,6.20
2018-10-01T04:57:36.223Z,6.13
2018-10-01T05:00:08.702Z,7.57
2018-10-01T05:02:40.507Z,8.00
2018-10-01T05:05:12.516Z,8.33
2018-10-01T05:07:44.369Z,6.70
2018-10-01T05:10:16.197Z,6.93
2018-10-01T05:12:47.961Z,5.63
2018-10-01T05:15:19.625Z,5.57
2018-10-01T05:17:51.368Z,7.60
2018-10-01T05:20:23.237Z,7.63
2018-10-01T05:22:54.909Z,6.43
2018-10-01T05:25:26.668Z,6.60
2018-10-01T05:27:58.526Z,6.30
2018-10-01T05:30:30.394Z,4.87
2018-10-01T05:33:02.348Z,6.60
2018-10-01T05:35:34.035Z,6.27
2018-10-01T05:38:05.923Z,3.90
2018-10-01T05:40:37.759Z,5.63
2018-10-01T05:43:09.492Z,5.97
2018-10-01T05:45:41.161Z,4.17
2018-10-01T05:48:13.032Z,6.23
2018-10-01T05:50:44.869Z,5.67
2018-10-01T05:53:16.524Z,5.90
2018-10-01T05:55:48.292Z,5.20
2018-10-01T05:58:20.774Z,5.90
2018-10-01T06:00:52.615Z,4.73
2018-10-01T06:03:24.314Z,6.07
2018-10-01T06:05:56.035Z,5.40
2018-10-01T06:08:27.790Z,5.47
2018-10-01T06:10:59.579Z,4.70
2018-10-01T06:13:31.319Z,4.40
2018-10-01T06:16:03.173Z,4.50
2018-10-01T06:18:35.026Z,6.07
2018-10-01T06:21:06.808Z,7.07
2018-10-01T06:23:38.467Z,7.07
2018-10-01T06:26:10.524Z,4.90
2018-10-01T06:28:42.303Z,7.07
2018-10-01T06:31:14.029Z,5.13
2018-10-01T06:33:45.805Z,6.87
2018-10-01T06:36:17.567Z,7.43
2018-10-01T06:38:49.329Z,6.27
2018-10-01T06:41:21.118Z,6.17
2018-10-01T06:43:52.957Z,4.60
2018-10-01T06:46:24.790Z,5.53
2018-10-01T06:48:56.566Z,4.20
2018-10-01T06:51:28.289Z,5.00
2018-10-01T06:53:59.993Z,4.60
2018-10-01T06:56:31.837Z,6.80
2018-10-01T06:59:03.694Z,3.90
2018-10-01T07:01:35.421Z,3.90
2018-10-01T07:04:07.171Z,5.90
2018-10-01T07:06:38.877Z,5.57
2018-10-01T07:09:11.891Z,7.40
2018-10-01T07:11:43.818Z,7.87
2018-10-01T07:14:15.598Z,6.13
2018-10-01T07:16:47.507Z,5.73
2018-10-01T07:19:19.206Z,6.60
2018-10-01T07:21:50.863Z,4.97
2018-10-01T07:24:22.611Z,7.40
2018-10-01T07:26:54.355Z,4.57
2018-10-01T07:29:26.361Z,6.00
2018-10-01T07:31:58.254Z,4.67
2018-10-01T07:34:30.062Z,3.60
2018-10-01T07:37:01.805Z,3.97
2018-10-01T07:39:33.699Z,5.60
2018-10-01T07:42:05.449Z,4.90
2018-10-01T07:44:37.384Z,8.33
2018-10-01T07:47:09.301Z,6.07
2018-10-01T07:49:41.058Z,7.43
2018-10-01T07:52:13.021Z,7.07
2018-10-01T07:54:44.954Z,5.60
2018-10-01T07:57:16.775Z,8.40
2018-10-01T07:59:48.739Z,6.40
2018-10-01T08:02:20.562Z,6.30
2018-10-01T08:04:52.416Z,3.97
2018-10-01T08:07:24.156Z,9.03
2018-10-01T08:09:55.818Z,7.20
2018-10-01T08:12:27.590Z,7.47
2018-10-01T08:14:59.464Z,7.47
2018-10-01T08:17:31.297Z,7.93
2018-10-01T08:20:03.174Z,9.20
2018-10-01T08:22:35.036Z,7.40
2018-10-01T08:25:07.118Z,6.40
2018-10-01T08:27:38.926Z,6.43
2018-10-01T08:30:10.725Z,4.83
2018-10-01T08:32:42.459Z,8.20
2018-10-01T08:35:14.420Z,7.53
2018-10-01T08:37:46.273Z,6.87
2018-10-01T08:40:18.241Z,6.60
2018-10-01T08:45:32.467Z,4.30
2018-10-01T08:48:04.494Z,9.50
2018-10-01T08:51:40.082Z,4.87
2018-10-01T08:54:19.947Z,6.60
2018-10-01T08:56:51.673Z,6.60
2018-10-01T08:59:23.563Z,3.60
2018-10-01T09:01:55.060Z,6.27
2018-10-01T09:04:26.550Z,3.67
2018-10-01T09:06:58.473Z,3.80
2018-10-01T09:09:30.360Z,5.53
2018-10-01T09:12:02.196Z,3.37
2018-10-01T09:14:33.901Z,4.93
2018-10-01T09:17:05.836Z,3.07
2018-10-01T09:19:37.704Z,7.47
2018-10-01T09:22:09.468Z,6.73
2018-10-01T09:24:41.428Z,5.80
2018-10-01T09:27:13.358Z,6.93
2018-10-01T09:29:45.109Z,6.20
2018-10-01T09:32:16.878Z,3.80
2018-10-01T09:34:48.729Z,6.20
2018-10-01T09:37:20.528Z,7.43
2018-10-01T09:39:52.271Z,5.67
2018-10-01T09:42:23.929Z,6.97
2018-10-01T09:44:55.772Z,4.00
2018-10-01T09:47:27.449Z,2.97
2018-10-01T09:49:59.344Z,8.37
2018-10-01T09:52:31.192Z,5.87
2018-10-01T09:55:02.925Z,8.47
2018-10-01T09:57:34.841Z,8.13
2018-10-01T10:00:07.036Z,10.40
2018-10-01T10:02:38.978Z,10.60
2018-10-01T10:05:10.636Z,7.57
2018-10-01T10:07:42.452Z,9.80
2018-10-01T10:10:14.287Z,11.50
2018-10-01T10:12:46.043Z,11.47
2018-10-01T10:15:18.011Z,11.33
2018-10-01T10:17:49.687Z,8.77
2018-10-01T10:20:21.572Z,11.07
2018-10-01T10:22:53.387Z,11.37
2018-10-01T10:25:25.054Z,7.90
2018-10-01T10:27:56.959Z,13.83
2018-10-01T10:30:28.870Z,15.67
2018-10-01T10:33:00.633Z,10.20
2018-10-01T10:35:32.428Z,9.83
2018-10-01T10:38:04.340Z,10.90
2018-10-01T10:40:36.118Z,10.83
2018-10-01T10:43:08.102Z,12.50
2018-10-01T10:45:39.987Z,8.10
2018-10-01T10:48:11.875Z,7.33
2018-10-01T10:50:43.658Z,12.13
2018-10-01T10:53:15.405Z,9.80
2018-10-01T10:55:47.094Z,9.07
2018-10-01T10:58:18.963Z,11.93
2018-10-01T11:00:50.825Z,10.07
2018-10-01T11:03:22.560Z,6.27
2018-10-01T11:05:54.218Z,6.67
2018-10-01T11:08:26.133Z,11.50
2018-10-01T11:10:57.954Z,7.20
2018-10-01T11:13:29.692Z,6.80
2018-10-01T11:16:01.590Z,10.63
2018-10-01T11:18:33.445Z,4.60
2018-10-01T11:21:05.355Z,4.17
2018-10-01T11:23:37.139Z,6.30
2018-10-01T11:26:09.037Z,6.70
2018-10-01T11:28:40.921Z,9.73
2018-10-01T11:31:12.830Z,7.43
2018-10-01T11:33:44.610Z,5.33
2018-10-01T11:36:16.363Z,5.23
2018-10-01T11:38:48.196Z,7.77
2018-10-01T11:41:19.867Z,7.40
2018-10-01T11:43:51.636Z,5.80
2018-10-01T11:46:23.478Z,9.63
2018-10-01T11:48:55.243Z,6.33
2018-10-01T11:51:26.948Z,6.77
2018-10-01T11:53:58.669Z,7.87
2018-10-01T11:56:30.336Z,7.13
2018-10-01T11:59:02.318Z,4.97
2018-10-01T12:01:34.349Z,7.53
2018-10-01T12:04:06.344Z,5.87
2018-10-01T12:06:37.965Z,3.83
2018-10-01T12:09:12.258Z,6.63
2018-10-01T12:11:43.942Z,6.47
2018-10-01T12:14:15.712Z,5.20
2018-10-01T12:16:47.560Z,5.70
2018-10-01T12:19:19.346Z,4.33
2018-10-01T12:21:51.079Z,7.20
2018-10-01T12:24:22.940Z,6.50
2018-10-01T12:26:54.663Z,8.13
2018-10-01T12:29:26.365Z,6.97
2018-10-01T12:31:58.204Z,4.77
2018-10-01T12:34:30.179Z,6.80
2018-10-01T12:37:01.965Z,5.13
2018-10-01T12:39:33.760Z,4.80
2018-10-01T12:42:05.686Z,3.97
2018-10-01T12:44:37.412Z,3.63
2018-10-01T12:47:09.197Z,4.37
2018-10-01T12:49:41.067Z,4.20
2018-10-01T12:52:12.806Z,2.63
2018-10-01T12:54:44.573Z,4.13
2018-10-01T12:57:16.541Z,8.00
2018-10-01T12:59:48.268Z,3.53
2018-10-01T13:02:19.964Z,7.07
2018-10-01T13:04:51.732Z,6.17
2018-10-01T13:07:23.470Z,6.40
2018-10-01T13:09:55.338Z,4.10
2018-10-01T13:12:48.299Z,8.90
2018-10-01T13:15:20.049Z,4.73
2018-10-01T13:17:51.945Z,5.33
2018-10-01T13:20:23.876Z,4.63
2018-10-01T13:22:55.718Z,5.93
2018-10-01T13:25:27.580Z,3.53
2018-10-01T13:27:59.344Z,3.77
2018-10-01T13:30:31.324Z,4.10
2018-10-01T13:33:03.223Z,3.50
2018-10-01T13:35:35.048Z,2.40
2018-10-01T13:38:06.918Z,5.47
2018-10-01T13:40:38.666Z,2.83
2018-10-01T13:43:10.531Z,4.00
2018-10-01T13:45:42.389Z,4.00
2018-10-01T13:48:14.280Z,5.17
2018-10-01T13:50:46.091Z,4.27
2018-10-01T13:53:17.747Z,5.50
2018-10-01T13:55:49.597Z,2.47
2018-10-01T13:58:21.310Z,14.73
2018-10-01T14:00:52.993Z,4.70
2018-10-01T14:03:24.810Z,14.13
2018-10-01T14:05:56.647Z,14.70
2018-10-01T14:08:28.531Z,23.10
2018-10-01T14:11:00.388Z,15.73
2018-10-01T14:13:32.371Z,15.63
2018-10-01T14:16:04.115Z,1.97
2018-10-01T14:18:35.857Z,3.83
2018-10-01T14:21:07.798Z,2.10
2018-10-01T14:23:39.558Z,1.23
2018-10-01T14:26:11.456Z,2.20
2018-10-01T14:28:43.281Z,3.07
2018-10-01T14:31:15.055Z,3.27
2018-10-01T14:33:46.813Z,2.93
2018-10-01T14:36:18.765Z,0.90
2018-10-01T14:38:50.529Z,0.83
2018-10-01T14:41:22.291Z,4.23
2018-10-01T14:43:53.972Z,1.97
2018-10-01T14:46:25.937Z,2.43
2018-10-01T14:48:57.723Z,3.50
2018-10-01T14:51:29.459Z,1.57
2018-10-01T14:54:01.453Z,1.97
2018-10-01T14:56:33.152Z,1.43
2018-10-01T14:59:04.945Z,2.90
2018-10-01T15:01:36.869Z,2.07
2018-10-01T15:04:08.730Z,1.63
2018-10-01T15:06:40.491Z,2.00
2018-10-01T15:09:12.970Z,1.70
2018-10-01T15:11:44.755Z,2.60
2018-10-01T15:14:16.589Z,3.27
2018-10-01T15:16:48.262Z,2.20
2018-10-01T15:19:20.141Z,1.40
2018-10-01T15:21:52.073Z,1.40
2018-10-01T15:24:23.867Z,1.87
2018-10-01T15:26:55.813Z,1.40
2018-10-01T15:29:27.684Z,1.03
2018-10-01T15:31:59.437Z,2.17
2018-10-01T15:34:31.268Z,1.83
2018-10-01T15:37:02.946Z,1.43
2018-10-01T15:39:34.761Z,1.37
2018-10-01T15:42:06.729Z,1.27
2018-10-01T15:44:38.616Z,1.50
2018-10-01T15:47:10.280Z,2.90
2018-10-01T15:49:42.040Z,1.70
2018-10-01T15:52:13.721Z,1.37
2018-10-01T15:54:45.876Z,1.37
2018-10-01T15:57:17.534Z,1.23
2018-10-01T15:59:49.369Z,1.50
2018-10-01T16:02:21.266Z,1.13
2018-10-01T16:04:53.009Z,1.27
2018-10-01T16:07:24.778Z,2.47
2018-10-01T16:09:56.829Z,1.17
2018-10-01T16:12:28.473Z,1.87
2018-10-01T16:15:00.253Z,1.40
2018-10-01T16:17:32.228Z,1.10
2018-10-01T16:20:03.984Z,1.60
2018-10-01T16:22:35.729Z,1.70
2018-10-01T16:25:08.041Z,1.83
2018-10-01T16:27:39.957Z,1.10
2018-10-01T16:30:11.745Z,2.00
2018-10-01T16:32:43.383Z,1.40
2018-10-01T16:35:15.434Z,1.87
2018-10-01T16:37:47.217Z,1.13
2018-10-01T16:40:18.957Z,0.93
2018-10-01T16:42:50.708Z,1.00
2018-10-01T16:45:22.464Z,0.70
2018-10-01T16:47:54.142Z,1.10
2018-10-01T16:50:25.910Z,1.03
2018-10-01T16:52:57.740Z,0.80
2018-10-01T16:55:29.405Z,1.00
2018-10-01T16:58:01.203Z,1.30
2018-10-01T17:00:33.237Z,1.40
2018-10-01T17:03:04.921Z,3.33
2018-10-01T17:05:36.559Z,3.40
2018-10-01T17:08:08.319Z,6.17
2018-10-01T17:10:40.181Z,8.00
2018-10-01T17:13:12.037Z,5.23
2018-10-01T17:15:43.913Z,5.80
2018-10-01T17:18:15.646Z,8.60
2018-10-01T17:20:47.399Z,5.70
2018-10-01T17:23:19.065Z,4.10
2018-10-01T17:25:50.829Z,2.30
2018-10-01T17:28:22.267Z,3.00
2018-10-01T17:30:54.046Z,4.53
2018-10-01T17:33:25.989Z,2.70
2018-10-01T17:35:57.755Z,2.73
2018-10-01T17:38:29.589Z,2.00
2018-10-01T17:41:01.468Z,2.60
2018-10-01T17:43:33.231Z,3.30
2018-10-01T17:46:04.932Z,2.63
2018-10-01T17:48:36.747Z,3.30
2018-10-01T17:51:08.641Z,3.40
2018-10-01T17:53:40.480Z,6.27
2018-10-01T17:56:12.147Z,14.23
2018-10-01T17:58:44.090Z,8.23
2018-10-01T18:01:15.768Z,12.07
2018-10-01T18:03:47.529Z,8.50
2018-10-01T18:06:19.401Z,6.83
2018-10-01T18:08:51.257Z,4.10
2018-10-01T18:11:23.227Z,3.30
2018-10-01T18:13:55.074Z,3.13
2018-10-01T18:16:26.906Z,6.03
2018-10-01T18:18:58.779Z,2.27
2018-10-01T18:21:30.393Z,2.23
2018-10-01T18:24:02.263Z,2.50
2018-10-01T18:26:33.986Z,2.87
2018-10-01T18:29:05.963Z,1.93
2018-10-01T18:31:37.770Z,1.93
2018-10-01T18:34:09.663Z,2.33
2018-10-01T18:36:41.413Z,1.20
2018-10-01T18:39:23.587Z,0.90
2018-10-01T18:41:55.289Z,0.80
2018-10-01T18:44:27.133Z,1.77
2018-10-01T18:46:58.984Z,1.10
2018-10-01T18:49:30.770Z,1.07
2018-10-01T18:52:02.734Z,0.90
2018-10-01T18:54:34.475Z,1.33
2018-10-01T18:57:06.345Z,0.90
2018-10-01T18:59:38.095Z,0.70
2018-10-01T19:02:09.953Z,1.03
2018-10-01T19:04:41.622Z,0.93
2018-10-01T19:07:13.490Z,0.60
2018-10-01T19:09:45.230Z,0.80
2018-10-01T19:12:17.109Z,1.37
2018-10-01T19:14:48.993Z,0.70
2018-10-01T19:17:20.930Z,0.87
2018-10-01T19:19:52.803Z,1.63
2018-10-01T19:22:24.542Z,2.10
2018-10-01T19:24:56.315Z,0.50
2018-10-01T19:27:28.048Z,0.70
2018-10-01T19:29:59.928Z,0.60
2018-10-01T19:32:31.759Z,1.20
2018-10-01T19:35:03.884Z,2.13
2018-10-01T19:37:35.695Z,2.00
2018-10-01T19:40:07.481Z,1.63
2018-10-01T19:42:39.405Z,1.93
2018-10-01T19:45:11.415Z,1.70
2018-10-01T19:47:43.171Z,2.67
2018-10-01T19:50:15.019Z,1.80
2018-10-01T19:52:46.964Z,1.33
2018-10-01T19:55:18.827Z,2.33
2018-10-01T19:57:50.487Z,1.03
2018-10-01T20:00:22.514Z,1.50
2018-10-01T20:02:54.243Z,1.90
2018-10-01T20:05:26.198Z,1.80
2018-10-01T20:07:58.133Z,2.73
2018-10-01T20:10:29.922Z,3.73
2018-10-01T20:13:01.791Z,2.00
2018-10-01T20:15:33.626Z,1.87
2018-10-01T20:18:05.527Z,3.17
2018-10-01T20:20:37.341Z,4.90
2018-10-01T20:23:09.253Z,4.93
2018-10-01T20:25:41.034Z,2.50
2018-10-01T20:28:12.931Z,1.03
2018-10-01T20:30:44.748Z,0.87
2018-10-01T20:33:16.572Z,1.03
2018-10-01T20:35:48.482Z,2.40
2018-10-01T20:38:20.435Z,0.87
2018-10-01T20:40:52.239Z,1.03
2018-10-01T20:43:25.214Z,2.07
2018-10-01T20:45:57.058Z,2.30
2018-10-01T20:48:28.763Z,0.93
2018-10-01T20:51:00.606Z,2.20
2018-10-01T20:53:32.407Z,0.97
2018-10-01T20:56:04.184Z,1.73
2018-10-01T20:58:36.021Z,1.03
2018-10-01T21:01:07.829Z,0.53
2018-10-01T21:03:39.472Z,1.23
2018-10-01T21:06:11.341Z,0.87
2018-10-01T21:08:43.267Z,0.60
2018-10-01T21:11:14.982Z,1.37
2018-10-01T21:13:46.689Z,0.83
2018-10-01T21:16:18.582Z,0.40
2018-10-01T21:18:50.283Z,0.60
2018-10-01T21:21:22.031Z,0.47
2018-10-01T21:23:53.847Z,0.57
2018-10-01T21:26:25.537Z,0.93
2018-10-01T21:28:57.230Z,1.57
2018-10-01T21:31:29.246Z,0.80
2018-10-01T21:34:01.183Z,0.77
2018-10-01T21:36:32.878Z,0.37
2018-10-01T21:39:05.368Z,0.50
2018-10-01T21:41:37.134Z,0.77
2018-10-01T21:44:09.019Z,0.90
2018-10-01T21:46:40.721Z,1.10
2018-10-01T21:49:12.448Z,2.40
2018-10-01T21:51:44.271Z,2.20
2018-10-01T21:54:15.964Z,1.07
2018-10-01T21:56:47.753Z,1.33
2018-10-01T21:59:19.569Z,3.30
2018-10-01T22:01:55.506Z,3.33
2018-10-01T22:04:27.430Z,1.40
2018-10-01T22:06:59.315Z,1.70
2018-10-01T22:09:31.090Z,2.13
2018-10-01T22:12:02.842Z,0.73
2018-10-01T22:14:34.989Z,1.20
2018-10-01T22:17:06.733Z,1.70
2018-10-01T22:19:38.369Z,1.67
2018-10-01T22:22:10.517Z,1.30
2018-10-01T22:24:42.306Z,2.30
2018-10-01T22:27:14.221Z,1.77
2018-10-01T22:29:45.912Z,2.60
2018-10-01T22:32:17.913Z,0.50
2018-10-01T22:34:49.835Z,1.23
2018-10-01T22:37:21.645Z,0.63
2018-10-01T22:39:53.353Z,0.70
2018-10-01T22:42:25.049Z,1.13
2018-10-01T22:44:56.679Z,1.37
2018-10-01T22:47:28.499Z,1.80
2018-10-01T22:50:00.194Z,0.50
2018-10-01T22:52:31.998Z,1.73
2018-10-01T22:55:03.805Z,0.57
2018-10-01T22:57:35.618Z,1.43
2018-10-01T23:00:07.446Z,0.93
2018-10-01T23:02:39.358Z,1.53
2018-10-01T23:05:11.191Z,1.00
2018-10-01T23:07:42.966Z,0.57
2018-10-01T23:10:14.657Z,1.07
2018-10-01T23:12:46.499Z,1.90
2018-10-01T23:15:18.198Z,1.13
2018-10-01T23:17:49.981Z,0.87
2018-10-01T23:20:21.870Z,1.70
2018-10-01T23:22:53.654Z,2.20
2018-10-01T23:25:25.495Z,0.40
2018-10-01T23:27:57.220Z,1.57
2018-10-01T23:30:28.855Z,1.53
2018-10-01T23:33:00.672Z,3.47
2018-10-01T23:35:32.498Z,0.50
2018-10-01T23:38:04.494Z,2.67
2018-10-01T23:40:36.310Z,0.90
2018-10-01T23:43:08.233Z,1.47
2018-10-01T23:45:40.108Z,2.50
2018-10-01T23:48:11.826Z,0.83
2018-10-01T23:50:43.518Z,1.33
2018-10-01T23:53:15.357Z,2.50
2018-10-01T23:55:47.053Z,0.73
2018-10-01T23:58:18.875Z,1.00
